Terminal Aerodrome Forecast
Issued by NWS Louisville, KY

Home | Current Version | Previous Version | Text Only | Print | Product List | Glossary On
Versions: 1 2 3 4 5 6 7 8 9 10 11 12 13 14 15 16 17 18
663
FTUS43 KLMK 282200 AAA
TAFSDF
TAF AMD
KSDF 282200Z 2822/2924 25011KT P6SM SCT025 SCT045
     FM282300 25010KT P6SM VCTS SCT030CB BKN060
     FM290200 29007KT P6SM SCT030 SCT250=

USA.gov is the U.S. government's official web portal to all federal, state and local government web resources and services.